Time;durP1;ratioP1;P1;durP2;ratioP2;P2;SDS_P1;SDS_P2;PMS_P1;PMS_P2;Temp;Humidity;BMP_temperature;BMP_pressure;BME280_temperature;BME280_humidity;BME280_pressure;Samples;Min_cycle;Max_cycle;Signal;HPM_P1;HPM_P2
2024/04/11 00:01:22;;;;;;;7.82;2.10;;;;;;;17.07;46.67;102855.38;5450842;26;20002;-45
2024/04/11 00:03:47;;;;;;;5.82;1.90;;;;;;;17.21;46.39;102853.84;5450764;26;20071;-47
2024/04/11 00:06:13;;;;;;;8.63;1.95;;;;;;;17.10;46.90;102854.50;5451407;26;20010;-44
2024/04/11 00:08:38;;;;;;;8.85;2.03;;;;;;;17.40;46.31;102844.50;5450733;26;20530;-45
2024/04/11 00:11:04;;;;;;;8.82;2.00;;;;;;;17.31;46.29;102839.09;5451537;26;19999;-49
2024/04/11 00:13:29;;;;;;;6.25;1.90;;;;;;;17.22;46.55;102839.81;5451151;26;19995;-45
2024/04/11 00:15:56;;;;;;;7.32;1.75;;;;;;;17.35;46.34;102836.53;5449360;26;20055;-45
2024/04/11 00:18:24;;;;;;;11.07;1.92;;;;;;;17.49;46.58;102851.69;5450828;26;20013;-50
2024/04/11 00:20:50;;;;;;;7.35;1.88;;;;;;;17.48;46.22;102842.00;5450944;26;20011;-44
2024/04/11 00:23:15;;;;;;;9.50;2.05;;;;;;;17.45;46.50;102850.72;5451419;26;20031;-45
2024/04/11 00:25:42;;;;;;;9.35;1.92;;;;;;;17.47;46.30;102858.66;5450879;26;19994;-47
2024/04/11 00:28:09;;;;;;;6.65;1.77;;;;;;;17.53;46.47;102851.75;5452027;26;20021;-45
2024/04/11 00:30:35;;;;;;;6.55;1.90;;;;;;;17.44;46.55;102847.19;5452668;26;19995;-47
2024/04/11 00:33:01;;;;;;;8.77;1.80;;;;;;;17.55;46.64;102836.84;5450315;26;20072;-45
2024/04/11 00:35:26;;;;;;;8.93;1.90;;;;;;;17.41;47.07;102833.97;5450871;26;20002;-46
2024/04/11 00:37:51;;;;;;;9.85;2.13;;;;;;;17.58;46.44;102842.16;5448984;26;20027;-48
2024/04/11 00:40:18;;;;;;;7.85;1.92;;;;;;;17.08;47.93;102837.81;5450830;26;19995;-47
2024/04/11 00:42:43;;;;;;;7.85;1.88;;;;;;;17.56;46.91;102835.09;5449695;26;20407;-48
2024/04/11 00:45:09;;;;;;;7.70;2.03;;;;;;;17.67;46.78;102839.72;5449925;26;20034;-49
2024/04/11 00:47:35;;;;;;;6.65;1.92;;;;;;;17.66;47.18;102839.69;5449884;26;20006;-46
2024/04/11 00:50:01;;;;;;;4.70;1.73;;;;;;;17.66;47.25;102826.50;5452222;26;20074;-44
2024/04/11 00:52:28;;;;;;;5.95;2.20;;;;;;;17.73;46.92;102825.72;5453074;26;20010;-46
2024/04/11 00:54:54;;;;;;;8.48;2.15;;;;;;;17.63;47.35;102827.31;5452007;26;20025;-46
2024/04/11 00:57:20;;;;;;;10.25;2.25;;;;;;;17.25;48.56;102836.34;5452011;26;20048;-48
2024/04/11 00:59:48;;;;;;;7.25;2.17;;;;;;;17.15;48.54;102831.75;5451509;26;20014;-47
2024/04/11 01:02:14;;;;;;;10.07;2.30;;;;;;;17.45;48.23;102822.63;5452110;26;20023;-48
2024/04/11 01:04:40;;;;;;;7.97;2.35;;;;;;;17.53;47.84;102819.22;5451358;26;20453;-50
2024/04/11 01:07:07;;;;;;;9.07;2.65;;;;;;;17.28;48.53;102818.81;5453447;26;20010;-46
2024/04/11 01:09:35;;;;;;;10.18;2.60;;;;;;;17.11;48.99;102809.75;5450477;26;20026;-44
2024/04/11 01:12:02;;;;;;;7.93;2.67;;;;;;;17.33;48.66;102811.88;5449711;26;19995;-48
2024/04/11 01:14:27;;;;;;;11.07;2.65;;;;;;;17.08;49.97;102801.78;5452299;26;19995;-44
2024/04/11 01:16:53;;;;;;;7.28;2.50;;;;;;;17.29;49.13;102803.91;5451014;26;20453;-47
2024/04/11 01:19:19;;;;;;;7.93;2.20;;;;;;;16.94;50.62;102792.75;5450421;26;19999;-47
2024/04/11 01:21:45;;;;;;;10.15;2.53;;;;;;;17.03;50.74;102803.44;5451717;26;20003;-45
2024/04/11 01:24:13;;;;;;;9.20;2.80;;;;;;;17.06;50.43;102805.25;5451947;26;20009;-49
2024/04/11 01:26:39;;;;;;;6.82;2.33;;;;;;;16.93;51.63;102802.41;5450922;26;20013;-45
2024/04/11 01:29:06;;;;;;;10.80;2.50;;;;;;;17.00;51.67;102791.13;5450976;26;20014;-45
2024/04/11 01:31:31;;;;;;;11.52;2.50;;;;;;;16.88;52.54;102797.91;5452416;26;19995;-46
2024/04/11 01:33:56;;;;;;;8.82;2.22;;;;;;;16.82;52.62;102789.91;5450852;26;20340;-44
2024/04/11 01:36:22;;;;;;;8.10;2.40;;;;;;;16.50;54.48;102805.94;5449696;26;19994;-45
2024/04/11 01:38:47;;;;;;;6.30;2.30;;;;;;;16.78;53.78;102803.84;5451712;26;20437;-51
2024/04/11 01:41:12;;;;;;;7.95;2.33;;;;;;;16.51;54.97;102818.25;5448872;26;20453;-44
2024/04/11 01:43:38;;;;;;;7.57;1.95;;;;;;;17.24;52.83;102811.72;5448818;26;20087;-45
2024/04/11 01:46:03;;;;;;;8.20;2.40;;;;;;;17.44;51.95;102812.06;5449271;26;20014;-46
2024/04/11 01:48:29;;;;;;;6.10;2.20;;;;;;;17.15;53.19;102815.94;5447461;26;20017;-44
2024/04/11 01:50:54;;;;;;;6.38;2.03;;;;;;;16.91;54.15;102817.28;5448701;26;19995;-45
2024/04/11 01:53:19;;;;;;;6.95;2.00;;;;;;;16.87;54.78;102828.66;5449815;26;19998;-43
2024/04/11 01:55:47;;;;;;;5.00;1.92;;;;;;;16.73;55.93;102823.97;5448940;26;20353;-43
2024/04/11 01:58:16;;;;;;;9.13;2.38;;;;;;;16.73;55.93;102831.88;5449312;26;20002;-46
2024/04/11 02:00:43;;;;;;;7.70;2.20;;;;;;;17.25;54.26;102825.81;5449140;26;20003;-45
2024/04/11 02:03:09;;;;;;;8.70;2.30;;;;;;;17.06;55.05;102826.34;5448906;26;19994;-44
2024/04/11 02:05:37;;;;;;;7.43;2.25;;;;;;;17.39;54.09;102824.25;5448669;26;20017;-46
2024/04/11 02:08:03;;;;;;;7.95;2.35;;;;;;;17.40;54.11;102829.56;5448950;26;20006;-46
2024/04/11 02:10:29;;;;;;;7.72;2.10;;;;;;;17.19;54.92;102823.06;5449463;26;20007;-43
2024/04/11 02:12:56;;;;;;;8.02;2.17;;;;;;;17.27;54.80;102822.31;5449137;26;20453;-47
2024/04/11 02:15:23;;;;;;;6.38;2.20;;;;;;;17.10;55.81;102830.78;5446871;26;20067;-45
2024/04/11 02:17:49;;;;;;;6.25;2.10;;;;;;;17.19;55.68;102820.44;5448693;26;20003;-44
2024/04/11 02:20:16;;;;;;;8.35;2.50;;;;;;;17.25;55.50;102821.41;5448884;26;19999;-49
2024/04/11 02:22:43;;;;;;;6.78;2.38;;;;;;;16.81;57.60;102828.53;5447257;26;20398;-45
2024/04/11 02:25:09;;;;;;;8.43;2.33;;;;;;;16.67;58.29;102827.38;5451807;26;19994;-45
2024/04/11 02:27:34;;;;;;;7.07;2.33;;;;;;;16.75;58.15;102832.78;5479193;26;20463;-45
2024/04/11 02:29:59;;;;;;;11.18;3.05;;;;;;;16.41;60.09;102844.34;5448732;26;20753;-44
2024/04/11 02:32:27;;;;;;;7.25;2.45;;;;;;;16.45;59.67;102831.31;5449047;26;20018;-46
2024/04/11 02:34:52;;;;;;;6.97;2.55;;;;;;;17.03;58.01;102825.41;5448726;26;20048;-46
2024/04/11 02:37:18;;;;;;;7.00;2.13;;;;;;;16.63;60.12;102820.28;5448969;26;20039;-46
2024/04/11 02:39:43;;;;;;;10.20;2.60;;;;;;;16.47;60.56;102823.41;5447638;26;20018;-47
2024/04/11 02:42:09;;;;;;;8.82;2.85;;;;;;;16.28;61.31;102821.28;5448491;26;20010;-44
2024/04/11 02:44:34;;;;;;;8.30;2.50;;;;;;;16.21;62.21;102818.53;5448041;26;20003;-47
2024/04/11 02:47:01;;;;;;;10.55;2.70;;;;;;;16.84;60.16;102819.78;5447561;26;20014;-47
2024/04/11 02:49:29;;;;;;;7.32;2.30;;;;;;;16.77;61.10;102813.50;5448897;26;20017;-47
2024/04/11 02:51:54;;;;;;;9.68;2.83;;;;;;;15.90;64.50;102807.31;5448703;26;19999;-45
2024/04/11 02:54:20;;;;;;;8.30;2.92;;;;;;;16.59;62.46;102802.59;5450407;26;20018;-43
2024/04/11 02:56:46;;;;;;;9.70;2.60;;;;;;;16.69;61.62;102790.53;5446536;26;20017;-44
2024/04/11 02:59:11;;;;;;;10.05;2.65;;;;;;;16.43;62.65;102797.91;5448919;26;20032;-44
2024/04/11 03:01:39;;;;;;;9.50;2.67;;;;;;;16.42;62.90;102798.75;5448129;26;20003;-45
2024/04/11 03:04:05;;;;;;;9.07;2.50;;;;;;;16.55;62.72;102799.03;5448043;26;20113;-45
2024/04/11 03:06:33;;;;;;;10.40;2.90;;;;;;;16.42;63.03;102791.75;5448187;26;20003;-46
2024/04/11 03:09:00;;;;;;;5.43;2.65;;;;;;;16.34;64.10;102795.97;5448277;26;20096;-45
2024/04/11 03:11:25;;;;;;;9.63;2.75;;;;;;;16.36;64.30;102796.00;5448848;26;20003;-44
2024/04/11 03:13:58;;;;;;;9.50;2.78;;;;;;;16.85;62.81;102792.59;5448309;26;20002;-49
2024/04/11 03:16:25;;;;;;;10.10;2.67;;;;;;;16.56;64.25;102802.53;5448129;26;20408;-45
2024/04/11 03:18:53;;;;;;;9.27;3.03;;;;;;;16.73;63.70;102789.72;5448174;26;19999;-43
2024/04/11 03:21:19;;;;;;;8.98;2.97;;;;;;;16.38;65.35;102789.91;5447602;26;20014;-43
2024/04/11 03:23:45;;;;;;;7.28;2.95;;;;;;;16.30;66.46;102777.44;5447114;26;20068;-44
2024/04/11 03:26:10;;;;;;;9.10;3.20;;;;;;;16.15;67.51;102772.78;5447712;26;20007;-45
2024/04/11 03:28:36;;;;;;;7.82;3.20;;;;;;;16.69;65.11;102765.09;5447485;26;20118;-47
2024/04/11 03:31:08;;;;;;;7.28;2.97;;;;;;;16.93;64.20;102762.88;5447699;26;20013;-48
2024/04/11 03:33:36;;;;;;;10.70;3.60;;;;;;;16.82;64.26;102753.03;5447441;26;20014;-45
2024/04/11 03:36:09;;;;;;;10.13;3.28;;;;;;;16.49;66.24;102764.69;5444632;26;20696;-43
2024/04/11 03:38:35;;;;;;;8.88;3.10;;;;;;;16.83;64.86;102762.72;5447226;26;20031;-44
2024/04/11 03:41:11;;;;;;;11.80;3.75;;;;;;;16.65;65.86;102763.22;5447710;26;20072;-45
2024/04/11 03:43:41;;;;;;;8.98;3.22;;;;;;;16.88;65.30;102767.19;5447031;26;20531;-52
2024/04/11 03:46:21;;;;;;;10.82;3.20;;;;;;;16.82;65.74;102760.94;5449754;26;20445;-46
2024/04/11 03:49:06;;;;;;;7.90;3.10;;;;;;;16.49;67.42;102771.69;5448192;26;20003;-45
2024/04/11 03:51:39;;;;;;;;;;;;;;;16.80;66.12;102770.53;5451712;26;20076;-45
2024/04/11 03:54:04;;;;;;;13.00;3.30;;;;;;;16.79;66.67;102776.66;5449719;26;19924;-44
2024/04/11 03:56:30;;;;;;;11.35;3.50;;;;;;;16.86;66.14;102775.91;5451395;26;20071;-44
2024/04/11 03:58:56;;;;;;;8.77;3.70;;;;;;;16.90;65.63;102780.38;5451172;26;20011;-45
2024/04/11 04:01:23;;;;;;;7.88;3.63;;;;;;;16.97;65.52;102771.72;5452393;26;19999;-44
2024/04/11 04:03:54;;;;;;;14.80;4.10;;;;;;;16.31;68.44;102773.97;5450898;26;20018;-47
2024/04/11 04:06:19;;;;;;;10.65;4.18;;;;;;;16.41;68.25;102781.16;5451414;26;20015;-49
2024/04/11 04:08:49;;;;;;;9.85;4.30;;;;;;;16.78;66.71;102783.69;5450503;26;19998;-44
2024/04/11 04:11:17;;;;;;;10.85;4.50;;;;;;;16.49;68.02;102787.47;5450785;26;20003;-44
2024/04/11 04:13:42;;;;;;;13.20;4.40;;;;;;;16.62;67.79;102781.63;5450442;26;19999;-43
2024/04/11 04:16:14;;;;;;;11.32;4.70;;;;;;;16.75;67.31;102782.75;5448969;26;20475;-46
2024/04/11 04:18:50;;;;;;;13.68;4.22;;;;;;;16.70;68.00;102789.69;5450745;26;19995;-44
2024/04/11 04:21:20;;;;;;;12.45;4.70;;;;;;;16.52;68.20;102793.72;5451962;26;20359;-46
2024/04/11 04:23:48;;;;;;;10.13;4.53;;;;;;;16.62;68.25;102789.53;5451024;26;20348;-45
2024/04/11 04:26:18;;;;;;;10.25;4.85;;;;;;;16.24;69.62;102801.91;5451080;26;19994;-45
2024/04/11 04:28:43;;;;;;;10.38;4.70;;;;;;;16.17;70.69;102813.16;5449089;26;20018;-46
2024/04/11 04:31:13;;;;;;;13.40;4.90;;;;;;;16.58;69.52;102816.63;5451092;26;20007;-46
2024/04/11 04:33:39;;;;;;;11.15;4.80;;;;;;;16.53;69.99;102821.78;5449758;26;20563;-48
2024/04/11 04:36:06;;;;;;;14.55;5.00;;;;;;;16.54;69.46;102822.69;5449583;26;20006;-48
2024/04/11 04:38:32;;;;;;;9.85;4.50;;;;;;;16.84;69.25;102833.84;5450705;26;20003;-44
2024/04/11 04:40:57;;;;;;;11.45;5.20;;;;;;;16.41;71.01;102818.91;5449601;26;20509;-45
2024/04/11 04:43:22;;;;;;;10.77;5.78;;;;;;;16.17;72.38;102836.81;5449978;26;20002;-49
2024/04/11 04:45:49;;;;;;;11.02;5.82;;;;;;;16.29;73.26;102841.47;5449438;26;20576;-47
2024/04/11 04:48:15;;;;;;;11.30;5.75;;;;;;;16.19;74.37;102843.91;5449923;26;19999;-46
2024/04/11 04:50:41;;;;;;;11.93;5.50;;;;;;;16.40;73.29;102839.97;5449353;26;20009;-45
2024/04/11 04:53:06;;;;;;;10.32;5.60;;;;;;;16.13;74.17;102841.16;5449945;26;19999;-44
2024/04/11 04:55:33;;;;;;;9.75;5.68;;;;;;;16.33;73.81;102848.59;5449522;26;20068;-47
2024/04/11 04:57:58;;;;;;;11.68;6.22;;;;;;;16.36;73.79;102848.63;5449513;26;20013;-44
2024/04/11 05:00:24;;;;;;;15.40;5.85;;;;;;;16.19;74.25;102846.53;5450360;26;19999;-50
2024/04/11 05:02:52;;;;;;;12.07;6.45;;;;;;;16.10;75.15;102842.84;5449511;26;20009;-45
2024/04/11 05:05:18;;;;;;;10.68;6.50;;;;;;;16.40;74.26;102848.75;5450603;26;20114;-46
2024/04/11 05:07:45;;;;;;;12.10;6.45;;;;;;;16.19;74.19;102841.28;5449430;26;19998;-49
2024/04/11 05:10:11;;;;;;;10.98;6.50;;;;;;;16.34;74.40;102837.22;5449746;26;20030;-47
2024/04/11 05:12:43;;;;;;;13.48;6.53;;;;;;;16.51;74.17;102852.50;5449225;26;20036;-48
2024/04/11 05:15:12;;;;;;;12.95;6.45;;;;;;;16.60;73.76;102852.69;5449544;26;20510;-46
2024/04/11 05:17:41;;;;;;;11.85;6.70;;;;;;;16.43;73.99;102853.19;5447074;26;19998;-47
2024/04/11 05:20:17;;;;;;;12.30;7.00;;;;;;;16.73;73.48;102856.47;5451750;26;20002;-43
2024/04/11 05:22:46;;;;;;;13.00;6.93;;;;;;;16.07;76.80;102853.28;5451138;26;20015;-49
2024/04/11 05:25:14;;;;;;;12.23;7.25;;;;;;;16.16;76.83;102866.66;5449338;26;20628;-43
2024/04/11 05:27:39;;;;;;;13.73;7.20;;;;;;;16.24;76.99;102865.06;5448984;26;20014;-44
2024/04/11 05:30:10;;;;;;;13.70;7.43;;;;;;;16.20;76.88;102864.13;5449956;26;19998;-48
2024/04/11 05:32:37;;;;;;;13.18;7.63;;;;;;;16.01;78.52;102868.94;5448807;26;20397;-44
2024/04/11 05:35:06;;;;;;;14.27;7.78;;;;;;;16.20;78.22;102860.59;5448900;26;19998;-43
2024/04/11 05:37:31;;;;;;;16.27;7.80;;;;;;;16.39;77.76;102864.50;5449213;26;20006;-46
2024/04/11 05:39:58;;;;;;;13.70;8.32;;;;;;;16.18;78.73;102868.44;5449074;26;20353;-48
2024/04/11 05:42:25;;;;;;;13.05;8.35;;;;;;;16.20;78.82;102860.59;5449121;26;20013;-47
2024/04/11 05:44:50;;;;;;;13.77;8.27;;;;;;;16.44;78.13;102860.22;5448289;26;19999;-44
2024/04/11 05:47:16;;;;;;;13.10;8.18;;;;;;;16.08;79.53;102873.47;5448826;26;20003;-48
2024/04/11 05:49:41;;;;;;;14.45;8.70;;;;;;;16.31;78.87;102864.34;5449175;26;20014;-43
2024/04/11 05:52:08;;;;;;;13.68;8.68;;;;;;;16.54;78.03;102864.81;5449812;26;20360;-44
2024/04/11 05:54:33;;;;;;;14.13;8.80;;;;;;;16.52;78.17;102859.53;5448983;26;20337;-44
2024/04/11 05:56:59;;;;;;;13.57;8.88;;;;;;;16.27;79.18;102866.88;5448954;26;19999;-43
2024/04/11 05:59:24;;;;;;;19.60;9.27;;;;;;;16.43;78.80;102851.44;5448050;26;20440;-49
2024/04/11 06:01:50;;;;;;;13.65;8.35;;;;;;;16.35;79.27;102855.63;5448277;26;20010;-44
2024/04/11 06:04:16;;;;;;;14.32;8.52;;;;;;;16.63;78.66;102854.50;5449107;26;20015;-44
2024/04/11 06:06:41;;;;;;;13.25;8.43;;;;;;;16.36;79.64;102848.63;5448418;26;19999;-45
2024/04/11 06:09:08;;;;;;;14.38;8.95;;;;;;;16.38;79.53;102855.72;5449089;26;20009;-43
2024/04/11 06:11:34;;;;;;;14.15;8.57;;;;;;;16.45;79.34;102859.38;5448737;26;20003;-45
2024/04/11 06:14:00;;;;;;;13.68;8.80;;;;;;;16.16;80.78;102867.50;5447253;26;20012;-45
2024/04/11 06:16:25;;;;;;;19.40;9.20;;;;;;;16.47;80.35;102863.78;5449878;26;20003;-46
2024/04/11 06:18:54;;;;;;;13.50;8.45;;;;;;;16.12;81.75;102872.69;5451140;26;20007;-47
2024/04/11 06:21:22;;;;;;;18.35;8.48;;;;;;;16.74;79.26;102887.22;5449024;26;20002;-46
2024/04/11 06:23:47;;;;;;;14.20;8.25;;;;;;;16.48;78.99;102886.63;5448976;26;20014;-48
2024/04/11 06:26:14;;;;;;;12.93;7.85;;;;;;;16.35;80.49;102899.50;5449190;26;20003;-45
2024/04/11 06:28:40;;;;;;;11.50;7.72;;;;;;;16.40;80.13;102882.09;5449150;26;19999;-47
2024/04/11 06:31:05;;;;;;;13.27;8.02;;;;;;;16.04;82.30;102895.31;5451312;26;20010;-45
2024/04/11 06:33:31;;;;;;;11.05;7.40;;;;;;;16.53;80.36;102898.16;5451251;26;20003;-46
2024/04/11 06:35:58;;;;;;;12.52;8.18;;;;;;;16.32;81.00;102902.97;5449107;26;20003;-45
2024/04/11 06:38:24;;;;;;;12.90;7.78;;;;;;;16.50;81.06;102900.75;5450889;26;20027;-49
2024/04/11 06:40:52;;;;;;;14.85;7.90;;;;;;;16.48;80.71;102905.06;5448070;26;20010;-42
2024/04/11 06:43:17;;;;;;;12.63;7.90;;;;;;;16.28;81.47;102894.97;5448687;26;20075;-44
2024/04/11 06:45:43;;;;;;;12.85;7.95;;;;;;;16.50;80.70;102913.00;5447499;26;20453;-48
2024/04/11 06:48:09;;;;;;;13.90;8.20;;;;;;;16.20;81.02;102915.88;5448219;26;20009;-46
2024/04/11 06:50:35;;;;;;;14.63;7.68;;;;;;;16.51;81.08;102918.31;5447999;26;20047;-49
2024/04/11 06:53:04;;;;;;;12.60;8.00;;;;;;;16.57;80.80;102920.19;5447039;26;20445;-46
2024/04/11 06:55:30;;;;;;;14.52;8.30;;;;;;;16.23;81.58;102918.53;5448111;26;20015;-44
2024/04/11 06:57:56;;;;;;;14.15;8.40;;;;;;;16.45;81.15;102926.09;5447570;26;20021;-45
2024/04/11 07:00:36;;;;;;;16.42;8.95;;;;;;;16.44;81.50;102920.78;5448378;26;19998;-46
2024/04/11 07:03:25;;;;;;;15.85;9.07;;;;;;;16.21;82.34;102931.69;5447777;26;20007;-44
2024/04/11 07:05:59;;;;;;;15.35;9.35;;;;;;;16.05;83.89;102920.75;5447441;26;20014;-47
2024/04/11 07:08:31;;;;;;;17.38;9.70;;;;;;;16.30;82.82;102940.63;5449195;26;20042;-44
2024/04/11 07:11:15;;;;;;;19.52;10.52;;;;;;;16.16;83.15;102935.06;5448424;26;19995;-44
2024/04/11 07:13:41;;;;;;;19.10;10.45;;;;;;;16.12;83.45;102942.00;5449716;26;20035;-45
2024/04/11 07:16:07;;;;;;;17.33;9.82;;;;;;;16.74;81.69;102945.16;5448806;26;20003;-46
2024/04/11 07:18:44;;;;;;;18.90;10.73;;;;;;;16.13;83.58;102940.25;5448403;26;20003;-44
2024/04/11 07:21:13;;;;;;;19.05;10.90;;;;;;;16.47;82.71;102944.53;5448003;26;19999;-47
2024/04/11 07:23:42;;;;;;;21.88;12.52;;;;;;;16.38;82.98;102950.50;5447137;26;20400;-46
2024/04/11 07:26:11;;;;;;;20.63;12.05;;;;;;;16.39;83.43;102959.28;5448657;26;20073;-45
2024/04/11 07:28:41;;;;;;;23.25;12.07;;;;;;;16.45;83.15;102969.94;5451050;26;20135;-47
2024/04/11 07:31:08;;;;;;;23.38;12.80;;;;;;;16.32;83.39;102963.50;5451688;26;19994;-45
2024/04/11 07:33:35;;;;;;;21.48;11.65;;;;;;;16.78;82.04;102973.34;5451653;26;20030;-47
2024/04/11 07:36:01;;;;;;;20.80;11.90;;;;;;;16.48;83.67;102980.53;5451798;26;20245;-46
2024/04/11 07:38:27;;;;;;;23.38;12.15;;;;;;;16.72;82.83;102988.13;5452603;26;20002;-47
2024/04/11 07:40:54;;;;;;;22.00;12.43;;;;;;;16.60;83.55;102991.38;5451407;26;20014;-49
2024/04/11 07:43:23;;;;;;;22.75;12.40;;;;;;;16.70;82.76;102982.84;5451585;26;20009;-44
2024/04/11 07:45:48;;;;;;;21.88;12.32;;;;;;;16.72;83.28;102988.13;5450773;26;20542;-49
2024/04/11 07:48:16;;;;;;;23.17;12.60;;;;;;;16.61;83.88;102996.69;5451066;26;19995;-46
2024/04/11 07:50:44;;;;;;;21.65;13.07;;;;;;;16.17;84.91;103011.41;5451235;26;19999;-45
2024/04/11 07:53:14;;;;;;;24.38;12.63;;;;;;;16.31;85.02;103005.59;5451181;26;20448;-46
2024/04/11 07:55:44;;;;;;;23.05;12.05;;;;;;;16.16;86.41;103004.34;5450720;26;19998;-47
2024/04/11 07:58:10;;;;;;;22.02;11.32;;;;;;;16.20;86.03;102994.81;5451199;26;19999;-48
2024/04/11 08:00:39;;;;;;;19.05;10.73;;;;;;;16.35;84.85;102999.53;5451103;26;20002;-46
2024/04/11 08:03:07;;;;;;;21.38;10.50;;;;;;;16.61;84.39;103001.06;5451036;26;20013;-44
2024/04/11 08:05:33;;;;;;;20.10;10.45;;;;;;;16.43;84.80;102992.72;5450993;26;20048;-44
2024/04/11 08:07:59;;;;;;;21.33;10.77;;;;;;;16.31;85.36;103005.59;5450692;26;20005;-46
2024/04/11 08:10:28;;;;;;;19.92;10.40;;;;;;;16.75;83.95;103007.53;5451201;26;19995;-45
2024/04/11 08:12:54;;;;;;;22.20;11.30;;;;;;;16.42;85.06;103026.03;5450598;26;20474;-46
2024/04/11 08:15:20;;;;;;;20.58;11.65;;;;;;;16.36;85.21;103004.84;5450920;26;20075;-44
2024/04/11 08:17:47;;;;;;;22.23;11.50;;;;;;;16.52;85.72;103017.53;5450405;26;20010;-45
2024/04/11 08:20:12;;;;;;;22.02;11.52;;;;;;;16.45;85.51;103015.59;5450814;26;19999;-45
2024/04/11 08:22:39;;;;;;;24.98;12.10;;;;;;;16.61;84.99;103016.84;5450416;26;20049;-46
2024/04/11 08:25:06;;;;;;;25.38;12.52;;;;;;;16.70;84.85;103024.09;5450546;26;20081;-45
2024/04/11 08:27:32;;;;;;;25.58;11.77;;;;;;;16.84;84.17;103036.69;5450732;26;19998;-46
2024/04/11 08:29:58;;;;;;;23.92;12.02;;;;;;;16.83;84.07;103040.19;5450238;26;20009;-46
2024/04/11 08:32:25;;;;;;;24.65;11.90;;;;;;;17.04;83.66;103047.66;5450996;26;20333;-45
2024/04/11 08:34:52;;;;;;;18.90;10.30;;;;;;;17.11;82.94;103046.94;5450283;26;19999;-48
2024/04/11 08:37:18;;;;;;;18.88;9.10;;;;;;;17.21;83.05;103042.75;5454146;26;20003;-46
2024/04/11 08:39:44;;;;;;;16.98;8.10;;;;;;;17.50;81.48;103045.97;5454424;26;20363;-44
2024/04/11 08:42:12;;;;;;;14.40;7.38;;;;;;;17.03;83.06;103051.16;5451436;26;19998;-48
2024/04/11 08:44:41;;;;;;;15.18;7.10;;;;;;;16.88;84.29;103046.47;5449512;26;20003;-45
2024/04/11 08:47:06;;;;;;;16.55;6.88;;;;;;;16.88;84.24;103041.19;5450287;26;20017;-44
2024/04/11 08:49:32;;;;;;;15.38;7.50;;;;;;;17.12;82.37;103040.81;5451011;26;19998;-45
2024/04/11 08:51:59;;;;;;;21.92;7.60;;;;;;;16.66;84.79;103046.81;5449861;26;19998;-44
2024/04/11 08:54:24;;;;;;;18.48;8.10;;;;;;;16.82;84.96;103048.06;5450948;26;20010;-45
2024/04/11 08:56:52;;;;;;;17.42;7.20;;;;;;;16.81;84.56;103052.44;5452440;26;19999;-45
2024/04/11 08:59:19;;;;;;;18.02;7.20;;;;;;;16.73;85.55;103046.09;5451447;26;20002;-45
2024/04/11 09:01:45;;;;;;;16.67;7.38;;;;;;;17.05;84.60;103054.72;5450149;26;20521;-46
2024/04/11 09:04:10;;;;;;;16.27;7.47;;;;;;;17.02;84.25;103044.09;5450595;26;20035;-46
2024/04/11 09:06:35;;;;;;;16.35;8.02;;;;;;;16.69;85.69;103052.16;5450367;26;20022;-45
2024/04/11 09:09:06;;;;;;;18.35;7.45;;;;;;;17.02;85.28;103050.25;5452675;26;20090;-45
2024/04/11 09:11:32;;;;;;;18.40;8.07;;;;;;;16.74;85.21;103063.69;5452284;26;20048;-46
2024/04/11 09:14:00;;;;;;;17.90;8.38;;;;;;;16.35;87.30;103067.97;5449404;26;20043;-43
2024/04/11 09:16:29;;;;;;;19.42;8.35;;;;;;;16.39;87.41;103075.13;5450028;26;20842;-44
2024/04/11 09:19:05;;;;;;;19.38;8.00;;;;;;;16.72;86.77;103080.31;5449940;26;19994;-47
2024/04/11 09:21:31;;;;;;;18.38;8.00;;;;;;;16.80;87.15;103076.13;5450657;26;20028;-43
2024/04/11 09:23:57;;;;;;;18.20;7.90;;;;;;;16.96;86.41;103086.13;5449418;26;20029;-46
2024/04/11 09:26:22;;;;;;;20.45;7.78;;;;;;;17.10;86.24;103078.53;5452532;26;20466;-50
2024/04/11 09:28:48;;;;;;;16.35;7.35;;;;;;;17.13;85.34;103091.78;5451902;26;19999;-44
2024/04/11 09:31:18;;;;;;;17.63;8.02;;;;;;;17.38;84.72;103089.69;5450419;26;20010;-45
2024/04/11 09:33:47;;;;;;;19.13;8.95;;;;;;;17.27;84.81;103090.31;5449200;26;20003;-47
2024/04/11 09:36:15;;;;;;;18.63;9.82;;;;;;;17.48;84.16;103100.44;5449861;26;20582;-46
2024/04/11 09:38:42;;;;;;;20.25;10.68;;;;;;;17.38;84.31;103110.78;5449194;26;20018;-45
2024/04/11 09:41:11;;;;;;;27.00;11.18;;;;;;;17.43;84.28;103117.06;5449500;26;20448;-47
2024/04/11 09:43:41;;;;;;;22.55;11.52;;;;;;;17.17;85.26;103110.34;5449174;26;20348;-44
2024/04/11 09:46:17;;;;;;;21.88;11.05;;;;;;;16.87;85.66;103110.53;5449628;26;20003;-45
2024/04/11 09:48:44;;;;;;;21.98;10.73;;;;;;;17.07;85.21;103112.75;5447448;26;20070;-47
2024/04/11 09:51:13;;;;;;;23.88;11.07;;;;;;;17.20;85.60;103112.16;5449380;26;20450;-46
2024/04/11 09:53:39;;;;;;;18.67;9.40;;;;;;;16.71;86.27;103131.22;5450229;26;20011;-45
2024/04/11 09:56:06;;;;;;;17.88;9.10;;;;;;;16.58;87.81;103133.53;5449878;26;20005;-48
2024/04/11 09:58:41;;;;;;;19.02;9.73;;;;;;;17.11;86.21;103126.03;5449654;26;20497;-43
2024/04/11 10:01:29;;;;;;;19.52;9.00;;;;;;;17.42;84.54;103124.94;5447087;26;20084;-45
2024/04/11 10:03:57;;;;;;;16.08;7.95;;;;;;;17.40;83.87;103122.25;5448972;26;20349;-46
2024/04/11 10:06:29;;;;;;;15.70;7.88;;;;;;;17.40;84.00;103124.00;5449276;26;20569;-43
2024/04/11 10:09:17;;;;;;;13.95;7.13;;;;;;;17.35;84.45;103128.28;5449306;26;20010;-50
2024/04/11 10:11:45;;;;;;;13.32;6.65;;;;;;;16.97;85.93;103136.25;5448689;26;20399;-44
2024/04/11 10:14:22;;;;;;;12.25;6.20;;;;;;;17.22;85.41;103142.06;5449119;26;20010;-49
2024/04/11 10:16:49;;;;;;;16.05;6.90;;;;;;;17.79;82.80;103152.97;5448665;26;20018;-46
2024/04/11 10:19:27;;;;;;;13.07;6.57;;;;;;;18.11;82.42;103156.25;5449585;26;20105;-45
2024/04/11 10:22:24;;;;;;;12.85;6.53;;;;;;;17.26;83.24;103157.13;5448985;26;20014;-50
2024/04/11 10:24:50;;;;;;;15.68;6.82;;;;;;;17.75;83.76;103159.94;5448711;26;20449;-45
2024/04/11 10:27:18;;;;;;;12.50;6.93;;;;;;;18.12;82.21;103150.06;5448267;26;20014;-45
2024/04/11 10:29:48;;;;;;;14.02;6.72;;;;;;;18.54;80.29;103149.97;5410609;21;20012;-80
2024/04/11 10:32:35;;;;;;;17.75;6.95;;;;;;;18.40;80.24;103156.75;5383734;26;20215;-83
2024/04/11 10:35:04;;;;;;;15.73;6.63;;;;;;;18.29;80.83;103160.97;5390742;26;19996;-81
2024/04/11 10:37:33;;;;;;;16.58;6.65;;;;;;;18.39;79.99;103160.25;5361707;26;20032;-81
2024/04/11 10:40:00;;;;;;;16.38;6.57;;;;;;;18.33;80.67;103171.59;5389430;26;20000;-83
2024/04/11 10:42:36;;;;;;;13.57;5.97;;;;;;;18.48;79.92;103171.00;5393608;26;20004;-81
2024/04/11 10:45:17;;;;;;;31.85;7.13;;;;;;;18.79;79.72;103161.81;5393098;26;20004;-80
2024/04/11 10:47:44;;;;;;;16.83;6.85;;;;;;;19.29;77.81;103160.81;5356603;26;20011;-81
2024/04/11 10:50:23;;;;;;;12.93;5.88;;;;;;;18.89;76.95;103155.84;5389166;26;20000;-80
2024/04/11 10:52:49;;;;;;;13.85;5.68;;;;;;;19.09;76.12;103149.06;5387690;26;20047;-80
2024/04/11 10:55:28;;;;;;;14.70;5.88;;;;;;;18.86;77.04;103153.13;5389055;26;20000;-81
2024/04/11 10:58:13;;;;;;;11.32;5.53;;;;;;;19.13;76.98;103142.97;5386046;26;20000;-80
2024/04/11 11:01:07;;;;;;;14.25;6.10;;;;;;;19.32;74.83;103147.66;5392731;26;20008;-81
2024/04/11 11:06:24;;;;;;;17.13;6.43;;;;;;;19.42;74.50;103152.19;5397039;26;19996;-80
2024/04/11 11:09:10;;;;;;;10.90;5.80;;;;;;;19.81;72.09;103157.13;5388223;26;20008;-80
2024/04/11 11:11:39;;;;;;;17.80;7.88;;;;;;;19.87;72.18;103166.00;5390213;26;20345;-80
2024/04/11 11:14:06;;;;;;;16.65;9.55;;;;;;;19.70;71.32;103173.75;5377887;26;20064;-80
2024/04/11 11:16:43;;;;;;;18.80;9.35;;;;;;;19.98;71.03;103180.25;5384719;26;20000;-80
2024/04/11 11:19:11;;;;;;;16.10;9.60;;;;;;;19.94;70.86;103187.28;5385379;26;20049;-81
2024/04/11 11:21:40;;;;;;;18.75;9.55;;;;;;;19.89;71.54;103183.66;5355651;26;20007;-80
2024/04/11 11:24:09;;;;;;;16.00;9.48;;;;;;;19.73;72.51;103182.59;5390597;26;19996;-81
2024/04/11 11:26:43;;;;;;;19.55;9.95;;;;;;;20.20;70.43;103176.94;5362412;26;20004;-80